createdAt,value
2018-12-01T00:01:39.275Z,149.03
2018-12-01T00:04:11.310Z,175.57
2018-12-01T00:06:43.297Z,167.77
2018-12-01T00:09:15.306Z,183.53
2018-12-01T00:11:47.342Z,166.80
2018-12-01T00:14:19.357Z,159.60
2018-12-01T00:16:51.395Z,178.60
2018-12-01T00:19:23.397Z,161.37
2018-12-01T00:21:55.429Z,164.73
2018-12-01T00:24:27.548Z,192.20
2018-12-01T00:26:59.578Z,162.00
2018-12-01T00:29:31.604Z,163.83
2018-12-01T00:32:03.885Z,187.57
2018-12-01T00:34:35.903Z,165.60
2018-12-01T00:37:07.908Z,181.90
2018-12-01T00:39:39.952Z,160.63
2018-12-01T00:42:12.044Z,146.90
2018-12-01T00:44:46.295Z,164.23
2018-12-01T00:47:18.383Z,180.47
2018-12-01T00:49:50.418Z,170.47
2018-12-01T00:52:22.435Z,179.10
2018-12-01T00:54:54.416Z,196.10
2018-12-01T00:57:26.468Z,191.67
2018-12-01T00:59:58.476Z,183.03
2018-12-01T01:02:32.332Z,184.77
2018-12-01T01:05:04.469Z,182.37
2018-12-01T01:07:36.492Z,185.73
2018-12-01T01:10:09.069Z,186.53
2018-12-01T01:12:41.123Z,189.03
2018-12-01T01:15:13.132Z,179.87
2018-12-01T01:17:45.167Z,181.23
2018-12-01T01:20:18.328Z,186.93
2018-12-01T01:22:50.499Z,178.20
2018-12-01T01:25:22.498Z,193.13
2018-12-01T01:27:54.568Z,170.37
2018-12-01T01:30:26.597Z,199.07
2018-12-01T01:33:10.212Z,185.87
2018-12-01T01:35:42.216Z,207.33
2018-12-01T01:38:14.258Z,173.87
2018-12-01T01:40:46.251Z,178.27
2018-12-01T01:43:18.352Z,213.90
2018-12-01T01:45:50.513Z,191.60
2018-12-01T01:48:22.557Z,202.10
2018-12-01T01:50:54.571Z,196.33
2018-12-01T01:53:27.199Z,204.17
2018-12-01T01:55:59.208Z,196.53
2018-12-01T01:58:31.221Z,188.17
2018-12-01T02:01:03.259Z,218.67
2018-12-01T02:03:35.290Z,211.87
2018-12-01T02:06:07.285Z,201.57
2018-12-01T02:08:39.300Z,240.37
2018-12-01T02:11:11.295Z,222.50
2018-12-01T02:13:43.312Z,245.57
2018-12-01T02:16:15.356Z,227.80
2018-12-01T02:18:47.385Z,232.60
2018-12-01T02:21:19.384Z,228.90
2018-12-01T02:23:51.430Z,249.43
2018-12-01T02:26:23.424Z,236.27
2018-12-01T02:28:55.469Z,236.23
2018-12-01T02:31:27.483Z,265.67
2018-12-01T02:33:59.472Z,245.43
2018-12-01T02:36:31.493Z,225.67
2018-12-01T02:39:05.144Z,258.87
2018-12-01T02:41:37.405Z,227.97
2018-12-01T02:44:21.166Z,235.37
2018-12-01T02:47:06.383Z,268.67
2018-12-01T02:49:38.431Z,245.57
2018-12-01T02:52:10.444Z,238.40
2018-12-01T02:54:42.477Z,258.83
2018-12-01T02:57:14.468Z,241.73
2018-12-01T02:59:46.502Z,244.77
2018-12-01T03:02:18.509Z,229.20
2018-12-01T03:04:50.876Z,246.30
2018-12-01T03:07:22.871Z,248.63
2018-12-01T03:09:54.907Z,234.83
2018-12-01T03:12:26.897Z,226.17
2018-12-01T03:14:58.944Z,231.77
2018-12-01T03:17:31.048Z,265.07
2018-12-01T03:20:03.223Z,231.70
2018-12-01T03:22:35.252Z,248.03
2018-12-01T03:25:15.760Z,246.80
2018-12-01T03:27:49.881Z,204.47
2018-12-01T03:30:23.219Z,205.57
2018-12-01T03:32:55.354Z,236.87
2018-12-01T03:35:27.378Z,211.33
2018-12-01T03:37:59.400Z,220.60
2018-12-01T03:40:37.300Z,214.83
2018-12-01T03:43:09.321Z,213.63
2018-12-01T03:45:41.337Z,221.33
2018-12-01T03:48:13.364Z,233.57
2018-12-01T03:50:45.342Z,233.40
2018-12-01T03:53:17.406Z,239.67
2018-12-01T03:55:49.396Z,224.63
2018-12-01T03:58:21.456Z,239.23
2018-12-01T04:00:53.496Z,217.43
2018-12-01T04:03:25.540Z,268.57
2018-12-01T04:05:57.546Z,260.33
2018-12-01T04:08:29.581Z,264.90
2018-12-01T04:11:01.569Z,234.33
2018-12-01T04:13:33.602Z,223.67
2018-12-01T04:16:05.674Z,278.43
2018-12-01T04:18:37.697Z,239.37
2018-12-01T04:21:09.744Z,257.30
2018-12-01T04:23:41.765Z,249.10
2018-12-01T04:26:13.788Z,221.20
2018-12-01T04:28:45.781Z,228.33
2018-12-01T04:31:17.833Z,234.90
2018-12-01T04:33:49.829Z,226.67
2018-12-01T04:36:21.859Z,243.30
2018-12-01T04:38:54.060Z,250.60
2018-12-01T04:41:26.091Z,236.53
2018-12-01T04:43:58.089Z,247.00
2018-12-01T04:46:30.162Z,227.63
2018-12-01T04:49:02.181Z,253.43
2018-12-01T04:51:34.201Z,229.93
2018-12-01T04:54:06.240Z,239.83
2018-12-01T04:56:38.245Z,212.63
2018-12-01T04:59:10.275Z,233.77
2018-12-01T05:01:42.284Z,232.87
2018-12-01T05:04:14.271Z,214.03
2018-12-01T05:06:46.316Z,229.00
2018-12-01T05:09:18.328Z,236.70
2018-12-01T05:11:50.371Z,225.47
2018-12-01T05:14:22.369Z,226.63
2018-12-01T05:16:54.383Z,252.00
2018-12-01T05:19:26.396Z,209.23
2018-12-01T05:21:58.378Z,239.50
2018-12-01T05:24:30.400Z,240.13
2018-12-01T05:27:02.391Z,249.17
2018-12-01T05:29:34.439Z,248.63
2018-12-01T05:32:06.448Z,244.67
2018-12-01T05:34:38.464Z,256.63
2018-12-01T05:37:10.496Z,260.27
2018-12-01T05:39:42.982Z,238.30
2018-12-01T05:42:15.031Z,230.40
2018-12-01T05:44:47.038Z,230.80
2018-12-01T05:47:19.133Z,248.13
2018-12-01T05:49:51.124Z,239.00
2018-12-01T05:52:23.133Z,261.57
2018-12-01T05:54:55.119Z,241.37
2018-12-01T05:57:27.144Z,284.43
2018-12-01T05:59:59.225Z,247.67
2018-12-01T06:02:31.275Z,263.33
2018-12-01T06:05:03.433Z,248.47
2018-12-01T06:07:35.496Z,248.20
2018-12-01T06:10:09.834Z,263.90
2018-12-01T06:12:41.905Z,302.70
2018-12-01T06:15:14.883Z,268.60
2018-12-01T06:17:46.981Z,300.73
2018-12-01T06:20:20.228Z,281.73
2018-12-01T06:22:52.275Z,297.90
2018-12-01T06:25:24.299Z,299.30
2018-12-01T06:27:56.328Z,273.23
2018-12-01T06:30:28.351Z,316.33
2018-12-01T06:33:00.374Z,279.80
2018-12-01T06:35:32.393Z,277.70
2018-12-01T06:38:04.487Z,281.30
2018-12-01T06:40:36.516Z,304.03
2018-12-01T06:43:08.551Z,298.40
2018-12-01T06:45:40.532Z,263.97
2018-12-01T06:48:12.547Z,275.47
2018-12-01T06:50:44.580Z,265.00
2018-12-01T06:53:16.613Z,262.50
2018-12-01T06:55:54.649Z,267.50
2018-12-01T06:58:26.663Z,250.07
2018-12-01T07:00:58.704Z,250.87
2018-12-01T07:03:30.699Z,300.90
2018-12-01T07:06:02.750Z,260.33
2018-12-01T07:08:34.824Z,294.10
2018-12-01T07:11:06.869Z,275.67
2018-12-01T07:13:38.907Z,274.93
2018-12-01T07:16:11.061Z,282.17
2018-12-01T07:18:54.819Z,297.30
2018-12-01T07:21:27.068Z,270.13
2018-12-01T07:23:59.094Z,270.43
2018-12-01T07:26:31.127Z,300.47
2018-12-01T07:29:03.375Z,280.13
2018-12-01T07:31:35.499Z,275.50
2018-12-01T07:34:07.530Z,321.23
2018-12-01T07:36:39.931Z,290.60
2018-12-01T07:39:11.975Z,295.03
2018-12-01T07:41:44.017Z,313.53
2018-12-01T07:44:16.064Z,305.23
2018-12-01T07:46:48.068Z,282.70
2018-12-01T07:49:20.105Z,279.83
2018-12-01T07:51:52.173Z,270.80
2018-12-01T07:54:24.235Z,270.33
2018-12-01T07:56:56.256Z,233.80
2018-12-01T07:59:28.313Z,233.67
2018-12-01T08:02:00.364Z,243.00
2018-12-01T08:04:32.376Z,232.00
2018-12-01T08:07:05.007Z,246.67
2018-12-01T08:09:37.060Z,219.83
2018-12-01T08:12:09.041Z,214.50
2018-12-01T08:14:41.056Z,208.17
2018-12-01T08:17:13.075Z,195.77
2018-12-01T08:19:45.070Z,207.33
2018-12-01T08:22:17.116Z,190.10
2018-12-01T08:24:49.121Z,189.40
2018-12-01T08:27:21.223Z,150.53
2018-12-01T08:29:53.333Z,122.47
2018-12-01T08:32:25.405Z,99.13
2018-12-01T08:34:57.444Z,105.00
2018-12-01T08:37:29.539Z,84.70
2018-12-01T08:40:01.606Z,81.40
2018-12-01T08:42:33.617Z,64.67
2018-12-01T08:45:07.498Z,57.97
2018-12-01T08:47:40.175Z,59.13
2018-12-01T08:50:16.104Z,55.40
2018-12-01T08:52:48.210Z,51.53
2018-12-01T08:55:21.252Z,53.93
2018-12-01T08:57:53.693Z,62.73
2018-12-01T09:00:28.920Z,55.50
2018-12-01T09:03:06.524Z,61.33
2018-12-01T09:05:38.536Z,63.20
2018-12-01T09:08:10.675Z,59.33
2018-12-01T09:10:43.484Z,61.77
2018-12-01T09:13:15.504Z,57.67
2018-12-01T09:15:47.540Z,50.07
2018-12-01T09:18:19.589Z,51.50
2018-12-01T09:20:51.614Z,49.37
2018-12-01T09:23:23.796Z,57.17
2018-12-01T09:25:55.891Z,53.40
2018-12-01T09:28:28.172Z,49.87
2018-12-01T09:31:00.475Z,44.57
2018-12-01T09:33:32.595Z,44.63
2018-12-01T09:36:04.632Z,42.83
2018-12-01T09:38:36.720Z,42.90
2018-12-01T09:41:08.737Z,41.63
2018-12-01T09:43:40.939Z,47.27
2018-12-01T09:46:12.999Z,43.13
2018-12-01T09:48:48.291Z,37.60
2018-12-01T09:51:20.308Z,42.10
2018-12-01T09:53:52.369Z,44.73
2018-12-01T09:56:24.415Z,37.80
2018-12-01T09:58:56.448Z,37.43
2018-12-01T10:01:28.503Z,41.03
2018-12-01T10:04:00.541Z,41.90
2018-12-01T10:06:32.582Z,41.90
2018-12-01T10:09:07.588Z,43.77
2018-12-01T10:11:39.709Z,46.93
2018-12-01T10:14:11.815Z,54.97
2018-12-01T10:16:44.105Z,45.23
2018-12-01T10:19:16.107Z,54.57
2018-12-01T10:21:48.138Z,58.40
2018-12-01T10:24:20.161Z,50.43
2018-12-01T10:26:52.281Z,53.57
2018-12-01T10:29:24.308Z,54.00
2018-12-01T10:31:56.409Z,56.80
2018-12-01T10:34:28.416Z,55.57
2018-12-01T10:37:00.433Z,56.63
2018-12-01T10:39:32.446Z,49.80
2018-12-01T10:42:04.900Z,55.37
2018-12-01T10:44:36.899Z,59.13
2018-12-01T10:47:08.920Z,52.10
2018-12-01T10:49:40.909Z,58.63
2018-12-01T10:52:13.847Z,64.23
2018-12-01T10:54:45.040Z,55.87
2018-12-01T10:57:17.108Z,60.33
2018-12-01T10:59:49.208Z,48.33
2018-12-01T11:02:27.088Z,47.63
2018-12-01T11:04:59.140Z,48.30
2018-12-01T11:07:31.169Z,48.10
2018-12-01T11:10:03.492Z,53.10
2018-12-01T11:12:35.548Z,44.83
2018-12-01T11:15:08.179Z,53.10
2018-12-01T11:17:40.195Z,42.63
2018-12-01T11:20:12.222Z,45.57
2018-12-01T11:22:44.230Z,39.63
2018-12-01T11:25:16.272Z,43.10
2018-12-01T11:27:48.273Z,38.83
2018-12-01T11:30:20.354Z,39.90
2018-12-01T11:32:52.356Z,38.43
2018-12-01T11:35:24.381Z,44.97
2018-12-01T11:37:56.390Z,38.47
2018-12-01T11:40:28.441Z,43.13
2018-12-01T11:43:00.573Z,43.17
2018-12-01T11:45:32.596Z,42.87
2018-12-01T11:48:05.681Z,41.53
2018-12-01T11:50:38.484Z,42.03
2018-12-01T11:53:10.511Z,46.43
2018-12-01T11:55:42.648Z,38.43
2018-12-01T11:58:14.677Z,43.27
2018-12-01T12:00:46.671Z,43.73
2018-12-01T12:03:18.693Z,46.50
2018-12-01T12:05:50.706Z,49.50
2018-12-01T12:08:22.781Z,50.27
2018-12-01T12:10:54.845Z,46.47
2018-12-01T12:13:27.059Z,48.43
2018-12-01T12:15:59.080Z,45.17
2018-12-01T12:18:31.087Z,42.67
2018-12-01T12:21:03.143Z,50.13
2018-12-01T12:23:35.181Z,48.80
2018-12-01T12:26:07.187Z,53.53
2018-12-01T12:28:39.261Z,46.27
2018-12-01T12:31:11.359Z,50.70
2018-12-01T12:33:43.352Z,57.40
2018-12-01T12:36:15.389Z,51.60
2018-12-01T12:38:47.546Z,46.80
2018-12-01T12:41:19.584Z,43.00
2018-12-01T12:43:51.593Z,42.40
2018-12-01T12:46:23.617Z,48.10
2018-12-01T12:48:55.634Z,46.93
2018-12-01T12:51:27.665Z,38.43
2018-12-01T12:53:59.665Z,46.90
2018-12-01T12:56:31.696Z,47.10
2018-12-01T12:59:03.700Z,43.80
2018-12-01T13:01:35.747Z,55.43
2018-12-01T13:04:07.812Z,48.37
2018-12-01T13:06:39.853Z,48.53
2018-12-01T13:09:11.919Z,59.53
2018-12-01T13:11:43.938Z,54.50
2018-12-01T13:14:15.968Z,50.63
2018-12-01T13:16:48.000Z,62.17
2018-12-01T13:19:20.053Z,59.73
2018-12-01T13:21:52.055Z,50.87
2018-12-01T13:24:24.095Z,48.07
2018-12-01T13:26:56.108Z,51.30
2018-12-01T13:29:28.197Z,49.30
2018-12-01T13:32:00.228Z,46.40
2018-12-01T13:34:32.310Z,43.47
2018-12-01T13:37:04.611Z,49.57
2018-12-01T13:39:36.668Z,51.93
2018-12-01T13:42:08.678Z,45.80
2018-12-01T13:44:40.718Z,43.80
2018-12-01T13:47:12.736Z,50.50
2018-12-01T13:49:44.741Z,42.43
2018-12-01T13:52:16.777Z,50.30
2018-12-01T13:54:48.772Z,45.30
2018-12-01T13:57:20.804Z,41.93
2018-12-01T13:59:52.800Z,45.33
2018-12-01T14:02:24.843Z,50.70
2018-12-01T14:04:56.839Z,44.40
2018-12-01T14:07:28.857Z,44.83
2018-12-01T14:10:00.885Z,49.10
2018-12-01T14:12:32.912Z,45.97
2018-12-01T14:15:08.840Z,49.27
2018-12-01T14:17:40.958Z,48.60
2018-12-01T14:20:13.795Z,55.43
2018-12-01T14:22:46.701Z,61.87
2018-12-01T14:25:20.393Z,63.63
2018-12-01T14:27:57.816Z,58.17
2018-12-01T14:30:30.479Z,58.77
2018-12-01T14:33:02.541Z,53.00
2018-12-01T14:35:35.725Z,59.67
2018-12-01T14:38:09.964Z,69.90
2018-12-01T14:40:43.022Z,72.67
2018-12-01T14:43:15.192Z,66.30
2018-12-01T14:45:48.281Z,67.43
2018-12-01T14:48:20.308Z,77.80
2018-12-01T14:50:52.336Z,78.20
2018-12-01T14:53:24.367Z,77.97
2018-12-01T14:55:56.376Z,86.00
2018-12-01T14:58:28.413Z,86.30
2018-12-01T15:01:00.482Z,99.20
2018-12-01T15:03:32.519Z,100.77
2018-12-01T15:06:04.938Z,111.43
2018-12-01T15:08:36.976Z,119.37
2018-12-01T15:11:08.974Z,136.20
2018-12-01T15:13:41.032Z,133.70
2018-12-01T15:16:13.033Z,126.97
2018-12-01T15:18:45.063Z,137.67
2018-12-01T15:21:17.070Z,125.03
2018-12-01T15:23:49.169Z,146.13
2018-12-01T15:26:21.207Z,144.07
2018-12-01T15:28:53.256Z,146.77
2018-12-01T15:31:25.299Z,148.73
2018-12-01T15:33:57.327Z,142.83
2018-12-01T15:36:29.376Z,134.17
2018-12-01T15:39:01.395Z,148.10
2018-12-01T15:41:33.416Z,166.60
2018-12-01T15:44:05.756Z,161.10
2018-12-01T15:46:37.816Z,159.57
2018-12-01T15:49:09.821Z,172.27
2018-12-01T15:51:41.955Z,163.57
2018-12-01T15:54:13.975Z,168.70
2018-12-01T15:56:46.060Z,170.90
2018-12-01T15:59:18.088Z,176.80
2018-12-01T16:01:50.111Z,162.47
2018-12-01T16:04:22.161Z,176.60
2018-12-01T16:06:54.161Z,165.63
2018-12-01T16:09:26.203Z,188.30
2018-12-01T16:11:58.234Z,163.90
2018-12-01T16:14:30.296Z,196.60
2018-12-01T16:17:02.309Z,199.77
2018-12-01T16:19:34.337Z,173.50
2018-12-01T16:22:06.380Z,184.43
2018-12-01T16:24:38.424Z,206.77
2018-12-01T16:27:10.438Z,169.37
2018-12-01T16:29:42.487Z,209.17
2018-12-01T16:32:14.478Z,195.73
2018-12-01T16:34:46.497Z,183.83
2018-12-01T16:37:18.547Z,213.03
2018-12-01T16:39:50.562Z,190.10
2018-12-01T16:42:22.601Z,193.63
2018-12-01T16:44:54.592Z,226.23
2018-12-01T16:47:26.636Z,173.80
2018-12-01T16:49:58.692Z,196.50
2018-12-01T16:52:30.728Z,189.83
2018-12-01T16:55:02.890Z,186.07
2018-12-01T16:57:34.893Z,165.60
2018-12-01T17:00:10.831Z,183.63
2018-12-01T17:02:44.112Z,168.93
2018-12-01T17:05:17.281Z,179.90
2018-12-01T17:07:49.462Z,202.50
2018-12-01T17:10:21.825Z,181.63
2018-12-01T17:12:55.003Z,179.17
2018-12-01T17:15:27.042Z,181.23
2018-12-01T17:17:59.083Z,168.57
2018-12-01T17:20:31.108Z,193.67
2018-12-01T17:23:05.219Z,170.87
2018-12-01T17:25:37.268Z,182.27
2018-12-01T17:28:11.091Z,155.30
2018-12-01T17:30:43.244Z,162.90
2018-12-01T17:33:15.349Z,150.70
2018-12-01T17:35:47.390Z,141.13
2018-12-01T17:38:20.495Z,184.67
2018-12-01T17:41:01.236Z,184.43
2018-12-01T17:43:42.303Z,178.17
2018-12-01T17:46:14.341Z,163.23
2018-12-01T17:48:46.381Z,138.80
2018-12-01T17:51:18.446Z,137.50
2018-12-01T17:53:52.428Z,163.77
2018-12-01T17:56:24.477Z,160.13
2018-12-01T17:58:56.523Z,143.53
2018-12-01T18:01:28.577Z,145.83
2018-12-01T18:04:00.560Z,138.87
2018-12-01T18:06:32.578Z,142.53
2018-12-01T18:09:06.956Z,153.93
2018-12-01T18:11:38.981Z,139.50
2018-12-01T18:14:11.600Z,158.00
2018-12-01T18:16:43.608Z,134.57
2018-12-01T18:19:15.641Z,142.47
2018-12-01T18:21:47.688Z,140.90
2018-12-01T18:24:19.701Z,148.73
2018-12-01T18:26:51.743Z,148.47
2018-12-01T18:29:23.805Z,132.90
2018-12-01T18:31:55.885Z,123.20
2018-12-01T18:34:27.922Z,127.13
2018-12-01T18:36:59.941Z,121.77
2018-12-01T18:39:32.004Z,138.37
2018-12-01T18:42:04.089Z,128.33
2018-12-01T18:44:36.121Z,139.90
2018-12-01T18:47:08.160Z,135.87
2018-12-01T18:49:40.149Z,130.43
2018-12-01T18:52:12.174Z,130.87
2018-12-01T18:54:44.244Z,115.13
2018-12-01T18:57:16.295Z,123.13
2018-12-01T18:59:48.283Z,113.27
2018-12-01T19:02:20.317Z,121.20
2018-12-01T19:04:52.330Z,131.13
2018-12-01T19:07:24.425Z,107.93
2018-12-01T19:09:56.435Z,120.97
2018-12-01T19:12:28.514Z,115.33
2018-12-01T19:15:00.593Z,100.87
2018-12-01T19:17:32.591Z,109.13
2018-12-01T19:20:08.501Z,104.17
2018-12-01T19:22:40.642Z,99.77
2018-12-01T19:25:14.794Z,99.90
2018-12-01T19:27:47.362Z,104.07
2018-12-01T19:30:20.165Z,85.40
2018-12-01T19:32:55.710Z,86.20
2018-12-01T19:35:27.854Z,86.90
2018-12-01T19:37:59.997Z,78.37
2018-12-01T19:40:32.936Z,94.63
2018-12-01T19:43:05.209Z,95.27
2018-12-01T19:45:37.362Z,97.03
2018-12-01T19:48:09.934Z,81.07
2018-12-01T19:50:41.975Z,86.33
2018-12-01T19:53:15.048Z,93.53
2018-12-01T19:55:48.510Z,81.67
2018-12-01T19:58:22.864Z,82.23
2018-12-01T20:00:55.960Z,85.13
2018-12-01T20:03:29.384Z,75.03
2018-12-01T20:06:01.507Z,75.93
2018-12-01T20:08:33.564Z,73.83
2018-12-01T20:11:06.291Z,77.53
2018-12-01T20:13:39.825Z,67.43
2018-12-01T20:16:21.777Z,68.03
2018-12-01T20:18:53.925Z,67.23
2018-12-01T20:21:26.054Z,69.33
2018-12-01T20:23:58.117Z,70.17
2018-12-01T20:26:30.158Z,61.13
2018-12-01T20:29:02.181Z,64.33
2018-12-01T20:31:34.232Z,61.17
2018-12-01T20:34:06.504Z,65.20
2018-12-01T20:36:40.586Z,63.87
2018-12-01T20:39:19.105Z,72.53
2018-12-01T20:41:51.190Z,64.47
2018-12-01T20:44:23.217Z,77.43
2018-12-01T20:46:55.266Z,70.43
2018-12-01T20:49:27.341Z,62.17
2018-12-01T20:51:59.441Z,71.57
2018-12-01T20:54:37.008Z,62.77
2018-12-01T20:57:14.900Z,58.43
2018-12-01T20:59:46.977Z,59.70
2018-12-01T21:02:19.028Z,70.53
2018-12-01T21:04:51.075Z,76.80
2018-12-01T21:07:23.170Z,67.13
2018-12-01T21:09:55.149Z,74.43
2018-12-01T21:12:27.197Z,75.27
2018-12-01T21:14:59.225Z,65.77
2018-12-01T21:17:31.294Z,60.60
2018-12-01T21:20:06.296Z,59.90
2018-12-01T21:22:38.383Z,67.33
2018-12-01T21:25:11.701Z,59.60
2018-12-01T21:27:43.716Z,66.80
2018-12-01T21:30:18.183Z,53.63
2018-12-01T21:32:53.021Z,59.70
2018-12-01T21:35:25.095Z,57.40
2018-12-01T21:37:57.114Z,68.10
2018-12-01T21:40:29.113Z,72.97
2018-12-01T21:43:01.162Z,72.40
2018-12-01T21:45:33.215Z,54.37
2018-12-01T21:48:07.380Z,74.43
2018-12-01T21:50:40.328Z,62.53
2018-12-01T21:53:18.025Z,63.77
2018-12-01T21:55:50.068Z,48.87
2018-12-01T21:58:22.316Z,52.43
2018-12-01T22:00:56.284Z,56.97
2018-12-01T22:03:29.284Z,63.07
2018-12-01T22:06:02.141Z,57.80
2018-12-01T22:08:35.058Z,54.73
2018-12-01T22:11:08.950Z,55.87
2018-12-01T22:13:40.016Z,75.60
2018-12-01T22:16:12.067Z,64.53
2018-12-01T22:18:44.093Z,57.03
2018-12-01T22:21:16.105Z,51.10
2018-12-01T22:23:48.118Z,57.37
2018-12-01T22:26:20.110Z,63.70
2018-12-01T22:28:52.147Z,56.93
2018-12-01T22:31:24.184Z,62.90
2018-12-01T22:33:56.324Z,67.47
2018-12-01T22:36:28.345Z,50.67
2018-12-01T22:39:00.410Z,58.90
2018-12-01T22:41:32.440Z,50.13
2018-12-01T22:44:04.659Z,61.63
2018-12-01T22:46:36.718Z,60.50
2018-12-01T22:49:08.785Z,69.07
2018-12-01T22:51:40.834Z,54.70
2018-12-01T22:54:12.908Z,74.60
2018-12-01T22:56:44.910Z,67.33
2018-12-01T22:59:16.933Z,84.63
2018-12-01T23:01:48.971Z,60.83
2018-12-01T23:04:21.014Z,65.80
2018-12-01T23:06:53.017Z,72.00
2018-12-01T23:09:25.087Z,73.33
2018-12-01T23:11:57.128Z,65.57
2018-12-01T23:14:29.143Z,71.97
2018-12-01T23:17:01.186Z,56.50
2018-12-01T23:19:33.311Z,59.63
2018-12-01T23:22:05.351Z,58.60
2018-12-01T23:24:37.392Z,52.73
2018-12-01T23:27:09.408Z,60.43
2018-12-01T23:29:41.440Z,64.73
2018-12-01T23:32:13.499Z,65.40
2018-12-01T23:34:45.497Z,55.40
2018-12-01T23:37:17.528Z,63.23
2018-12-01T23:39:49.523Z,56.43
2018-12-01T23:42:21.563Z,58.23
2018-12-01T23:44:53.586Z,46.73
2018-12-01T23:47:25.624Z,44.73
2018-12-01T23:49:57.624Z,51.97
2018-12-01T23:52:29.656Z,46.40
2018-12-01T23:55:01.700Z,46.93
2018-12-01T23:57:33.741Z,56.13
